createdAt,value
2018-07-22T00:01:23.066Z,11.67
2018-07-22T00:03:51.146Z,8.43
2018-07-22T00:06:19.211Z,8.13
2018-07-22T00:08:47.290Z,8.77
2018-07-22T00:11:16.009Z,8.60
2018-07-22T00:13:44.067Z,17.60
2018-07-22T00:16:12.122Z,9.57
2018-07-22T00:18:40.157Z,7.87
2018-07-22T00:21:08.230Z,12.37
2018-07-22T00:23:36.297Z,17.13
2018-07-22T00:26:04.406Z,20.47
2018-07-22T00:28:32.469Z,10.23
2018-07-22T00:31:00.559Z,8.50
2018-07-22T00:33:28.941Z,15.57
2018-07-22T00:35:56.999Z,9.53
2018-07-22T00:38:25.049Z,10.47
2018-07-22T00:40:53.129Z,8.40
2018-07-22T00:43:21.175Z,12.83
2018-07-22T00:45:49.226Z,10.40
2018-07-22T00:48:17.297Z,11.33
2018-07-22T00:50:45.368Z,8.60
2018-07-22T00:53:13.441Z,8.47
2018-07-22T00:55:41.510Z,9.40
2018-07-22T00:58:09.565Z,8.20
2018-07-22T01:00:37.653Z,11.10
2018-07-22T01:03:05.787Z,21.43
2018-07-22T01:05:33.834Z,24.30
2018-07-22T01:08:01.962Z,14.70
2018-07-22T01:10:30.021Z,10.73
2018-07-22T01:12:58.103Z,8.87
2018-07-22T01:15:26.353Z,12.73
2018-07-22T01:17:54.421Z,10.23
2018-07-22T01:20:22.470Z,10.80
2018-07-22T01:22:50.533Z,9.50
2018-07-22T01:25:18.574Z,9.20
2018-07-22T01:27:46.668Z,8.50
2018-07-22T01:30:14.734Z,18.00
2018-07-22T01:32:42.794Z,9.80
2018-07-22T01:35:10.658Z,9.23
2018-07-22T01:37:38.729Z,9.40
2018-07-22T01:40:07.090Z,8.40
2018-07-22T01:42:35.145Z,8.23
2018-07-22T01:45:03.211Z,9.37
2018-07-22T01:47:31.266Z,8.63
2018-07-22T01:49:59.317Z,9.47
2018-07-22T01:52:27.382Z,8.83
2018-07-22T01:54:55.429Z,8.50
2018-07-22T01:57:23.589Z,8.70
2018-07-22T01:59:51.670Z,8.77
2018-07-22T02:02:19.745Z,9.03
2018-07-22T02:04:47.822Z,8.70
2018-07-22T02:07:15.896Z,8.83
2018-07-22T02:09:43.954Z,8.53
2018-07-22T02:12:12.019Z,7.60
2018-07-22T02:14:40.130Z,8.63
2018-07-22T02:17:08.209Z,8.90
2018-07-22T02:19:36.277Z,8.90
2018-07-22T02:22:04.128Z,8.73
2018-07-22T02:24:32.185Z,8.87
2018-07-22T02:27:00.245Z,10.00
2018-07-22T02:29:28.332Z,8.73
2018-07-22T02:31:56.418Z,8.23
2018-07-22T02:34:24.480Z,8.60
2018-07-22T02:36:52.533Z,8.10
2018-07-22T02:39:20.579Z,8.83
2018-07-22T02:41:48.642Z,8.47
2018-07-22T02:44:17.189Z,8.20
2018-07-22T02:46:45.249Z,8.80
2018-07-22T02:49:13.315Z,8.70
2018-07-22T02:51:41.365Z,7.90
2018-07-22T02:54:09.423Z,9.77
2018-07-22T02:56:37.633Z,9.63
2018-07-22T02:59:06.202Z,8.70
2018-07-22T03:01:36.118Z,9.97
2018-07-22T03:04:04.298Z,8.37
2018-07-22T03:06:32.772Z,8.63
2018-07-22T03:09:00.806Z,8.80
2018-07-22T03:11:28.861Z,9.13
2018-07-22T03:13:56.938Z,9.00
2018-07-22T03:16:24.995Z,8.50
2018-07-22T03:18:53.079Z,8.17
2018-07-22T03:21:21.117Z,9.50
2018-07-22T03:23:49.186Z,8.87
2018-07-22T03:26:17.845Z,8.70
2018-07-22T03:28:45.903Z,9.27
2018-07-22T03:31:13.982Z,9.07
2018-07-22T03:33:42.047Z,10.40
2018-07-22T03:36:10.093Z,8.50
2018-07-22T03:38:38.174Z,9.20
2018-07-22T03:41:06.221Z,9.07
2018-07-22T03:43:34.277Z,9.97
2018-07-22T03:46:02.398Z,9.50
2018-07-22T03:48:30.445Z,9.10
2018-07-22T03:50:58.507Z,9.90
2018-07-22T03:53:26.552Z,9.00
2018-07-22T03:55:54.608Z,9.10
2018-07-22T03:58:22.667Z,9.70
2018-07-22T04:00:50.710Z,9.57
2018-07-22T04:03:18.774Z,9.57
2018-07-22T04:05:47.000Z,9.73
2018-07-22T04:08:15.125Z,9.20
2018-07-22T04:10:43.196Z,8.30
2018-07-22T04:13:11.242Z,9.70
2018-07-22T04:15:39.301Z,9.33
2018-07-22T04:18:07.360Z,9.60
2018-07-22T04:20:35.908Z,10.23
2018-07-22T04:23:03.998Z,10.27
2018-07-22T04:25:32.085Z,10.17
2018-07-22T04:28:00.149Z,9.90
2018-07-22T04:30:28.205Z,9.67
2018-07-22T04:32:56.790Z,8.50
2018-07-22T04:35:25.857Z,8.80
2018-07-22T04:37:53.906Z,9.23
2018-07-22T04:40:22.160Z,9.03
2018-07-22T04:42:50.219Z,10.30
2018-07-22T04:45:18.274Z,11.50
2018-07-22T04:47:46.361Z,10.57
2018-07-22T04:50:14.518Z,10.00
2018-07-22T04:52:42.581Z,10.00
2018-07-22T04:55:10.664Z,10.30
2018-07-22T04:57:38.496Z,10.47
2018-07-22T05:00:06.557Z,9.83
2018-07-22T05:02:34.601Z,9.30
2018-07-22T05:05:02.676Z,9.40
2018-07-22T05:07:30.730Z,9.93
2018-07-22T05:09:58.994Z,11.57
2018-07-22T05:12:27.053Z,11.80
2018-07-22T05:14:55.120Z,10.40
2018-07-22T05:17:23.173Z,11.80
2018-07-22T05:19:51.229Z,11.23
2018-07-22T05:22:19.330Z,11.10
2018-07-22T05:24:47.393Z,10.93
2018-07-22T05:27:15.264Z,11.43
2018-07-22T05:29:43.313Z,11.27
2018-07-22T05:32:11.959Z,10.80
2018-07-22T05:34:40.030Z,12.00
2018-07-22T05:37:08.086Z,11.00
2018-07-22T05:39:36.185Z,11.93
2018-07-22T05:42:04.304Z,10.90
2018-07-22T05:44:32.422Z,10.63
2018-07-22T05:47:00.701Z,11.70
2018-07-22T05:49:28.766Z,11.27
2018-07-22T05:51:56.826Z,12.80
2018-07-22T05:54:24.892Z,11.33
2018-07-22T05:56:52.983Z,11.43
2018-07-22T05:59:21.046Z,10.87
2018-07-22T06:01:49.106Z,11.20
2018-07-22T06:04:17.158Z,10.97
2018-07-22T06:06:45.217Z,11.90
2018-07-22T06:09:13.281Z,12.57
2018-07-22T06:11:41.380Z,12.13
2018-07-22T06:14:09.417Z,10.63
2018-07-22T06:16:37.511Z,11.20
2018-07-22T06:19:05.545Z,10.60
2018-07-22T06:21:33.725Z,10.93
2018-07-22T06:24:01.800Z,12.37
2018-07-22T06:26:29.865Z,11.57
2018-07-22T06:28:57.934Z,10.80
2018-07-22T06:31:26.033Z,10.33
2018-07-22T06:33:54.089Z,11.13
2018-07-22T06:36:22.150Z,10.87
2018-07-22T06:38:50.213Z,10.90
2018-07-22T06:41:18.271Z,10.50
2018-07-22T06:43:46.343Z,10.87
2018-07-22T06:46:14.472Z,9.97
2018-07-22T06:48:42.470Z,9.93
2018-07-22T06:51:10.572Z,11.50
2018-07-22T06:53:38.657Z,10.97
2018-07-22T06:56:06.865Z,10.27
2018-07-22T06:58:34.911Z,10.87
2018-07-22T07:01:03.042Z,10.30
2018-07-22T07:03:31.053Z,11.97
2018-07-22T07:05:59.121Z,10.20
2018-07-22T07:08:27.173Z,9.93
2018-07-22T07:10:55.248Z,12.83
2018-07-22T07:13:23.306Z,11.27
2018-07-22T07:15:51.537Z,10.13
2018-07-22T07:18:19.602Z,10.33
2018-07-22T07:20:47.730Z,10.57
2018-07-22T07:23:15.732Z,10.83
2018-07-22T07:25:43.792Z,11.00
2018-07-22T07:28:11.858Z,10.40
2018-07-22T07:30:39.929Z,11.13
2018-07-22T07:33:08.010Z,10.27
2018-07-22T07:35:36.061Z,10.83
2018-07-22T07:38:04.227Z,10.70
2018-07-22T07:40:32.292Z,10.00
2018-07-22T07:43:00.357Z,10.77
2018-07-22T07:45:28.414Z,9.87
2018-07-22T07:47:57.685Z,9.03
2018-07-22T07:50:26.530Z,10.07
2018-07-22T07:52:54.581Z,10.10
2018-07-22T07:55:22.642Z,10.40
2018-07-22T07:57:50.548Z,10.10
2018-07-22T08:00:18.605Z,10.00
2018-07-22T08:02:46.670Z,10.00
2018-07-22T08:05:14.726Z,9.93
2018-07-22T08:07:42.814Z,10.03
2018-07-22T08:10:10.881Z,10.57
2018-07-22T08:12:39.721Z,9.03
2018-07-22T08:15:07.816Z,9.80
2018-07-22T08:17:35.868Z,9.40
2018-07-22T08:20:04.397Z,10.27
2018-07-22T08:22:32.482Z,8.87
2018-07-22T08:25:00.561Z,9.40
2018-07-22T08:27:28.645Z,9.90
2018-07-22T08:29:56.699Z,8.53
2018-07-22T08:32:24.776Z,9.47
2018-07-22T08:34:52.845Z,8.73
2018-07-22T08:37:20.718Z,9.17
2018-07-22T08:39:48.781Z,8.77
2018-07-22T08:42:16.875Z,9.10
2018-07-22T08:44:44.926Z,8.63
2018-07-22T08:47:13.006Z,9.60
2018-07-22T08:49:40.909Z,8.00
2018-07-22T08:52:08.970Z,9.00
2018-07-22T08:54:37.053Z,8.37
2018-07-22T08:57:05.333Z,9.10
2018-07-22T08:59:33.373Z,9.23
2018-07-22T09:02:01.422Z,8.43
2018-07-22T09:04:29.493Z,7.57
2018-07-22T09:06:57.581Z,9.00
2018-07-22T09:09:25.642Z,9.23
2018-07-22T09:11:53.702Z,8.80
2018-07-22T09:14:21.753Z,9.20
2018-07-22T09:16:49.829Z,8.67
2018-07-22T09:19:17.888Z,9.77
2018-07-22T09:21:45.934Z,9.53
2018-07-22T09:24:13.985Z,9.80
2018-07-22T09:26:42.041Z,10.67
2018-07-22T09:29:10.091Z,9.00
2018-07-22T09:31:38.168Z,9.50
2018-07-22T09:34:06.230Z,9.40
2018-07-22T09:36:34.335Z,8.70
2018-07-22T09:39:02.337Z,8.37
2018-07-22T09:41:30.409Z,9.10
2018-07-22T09:43:58.461Z,8.63
2018-07-22T09:46:26.505Z,9.13
2018-07-22T09:48:54.549Z,8.87
2018-07-22T09:51:22.605Z,8.70
2018-07-22T09:53:50.761Z,8.53
2018-07-22T09:56:18.749Z,9.47
2018-07-22T09:58:46.814Z,8.33
2018-07-22T10:01:14.865Z,9.30
2018-07-22T10:03:42.937Z,9.00
2018-07-22T10:06:10.991Z,7.87
2018-07-22T10:08:39.044Z,7.70
2018-07-22T10:11:07.162Z,7.33
2018-07-22T10:13:35.203Z,7.10
2018-07-22T10:16:03.333Z,8.13
2018-07-22T10:18:31.392Z,7.23
2018-07-22T10:20:59.462Z,7.20
2018-07-22T10:23:27.593Z,7.70
2018-07-22T10:25:55.585Z,7.90
2018-07-22T10:28:23.823Z,7.80
2018-07-22T10:30:51.880Z,9.30
2018-07-22T10:33:19.957Z,7.87
2018-07-22T10:35:48.067Z,8.07
2018-07-22T10:38:16.086Z,8.00
2018-07-22T10:40:44.144Z,7.93
2018-07-22T10:43:12.381Z,8.00
2018-07-22T10:45:40.431Z,7.47
2018-07-22T10:48:08.706Z,8.80
2018-07-22T10:50:36.811Z,9.57
2018-07-22T10:53:05.153Z,8.30
2018-07-22T10:55:33.218Z,8.13
2018-07-22T10:58:01.263Z,8.17
2018-07-22T11:00:29.331Z,7.77
2018-07-22T11:02:57.435Z,7.90
2018-07-22T11:05:25.469Z,8.80
2018-07-22T11:07:53.517Z,8.67
2018-07-22T11:10:21.587Z,7.30
2018-07-22T11:12:49.658Z,7.60
2018-07-22T11:15:17.745Z,8.67
2018-07-22T11:17:45.797Z,7.50
2018-07-22T11:20:13.853Z,6.13
2018-07-22T11:22:41.915Z,7.03
2018-07-22T11:25:09.981Z,6.63
2018-07-22T11:27:38.040Z,6.20
2018-07-22T11:30:06.201Z,6.30
2018-07-22T11:32:34.268Z,6.50
2018-07-22T11:35:02.478Z,5.67
2018-07-22T11:37:30.518Z,6.67
2018-07-22T11:39:58.574Z,6.23
2018-07-22T11:42:26.622Z,5.70
2018-07-22T11:44:54.681Z,5.60
2018-07-22T11:47:22.749Z,4.93
2018-07-22T11:49:50.805Z,6.10
2018-07-22T11:52:18.859Z,5.77
2018-07-22T11:54:46.929Z,4.90
2018-07-22T11:57:15.339Z,5.40
2018-07-22T11:59:43.381Z,4.83
2018-07-22T12:02:11.437Z,4.63
2018-07-22T12:04:39.636Z,5.43
2018-07-22T12:07:07.665Z,4.80
2018-07-22T12:09:35.758Z,4.37
2018-07-22T12:12:03.671Z,4.80
2018-07-22T12:14:31.721Z,5.20
2018-07-22T12:16:59.769Z,5.40
2018-07-22T12:19:27.833Z,4.27
2018-07-22T12:21:55.910Z,4.50
2018-07-22T12:24:23.961Z,3.80
2018-07-22T12:26:52.037Z,4.00
2018-07-22T12:29:20.102Z,4.03
2018-07-22T12:31:48.281Z,3.90
2018-07-22T12:34:16.385Z,3.53
2018-07-22T12:36:44.389Z,3.80
2018-07-22T12:39:13.085Z,3.73
2018-07-22T12:41:41.346Z,3.90
2018-07-22T12:44:09.425Z,3.90
2018-07-22T12:46:37.552Z,4.47
2018-07-22T12:49:05.861Z,3.83
2018-07-22T12:51:33.914Z,4.00
2018-07-22T12:54:01.965Z,4.13
2018-07-22T12:56:30.045Z,4.37
2018-07-22T12:58:58.521Z,4.70
2018-07-22T13:01:26.754Z,3.97
2018-07-22T13:03:54.912Z,5.10
2018-07-22T13:06:22.971Z,3.80
2018-07-22T13:08:51.024Z,4.50
2018-07-22T13:11:19.106Z,4.90
2018-07-22T13:13:47.350Z,4.27
2018-07-22T13:16:15.401Z,3.87
2018-07-22T13:18:43.457Z,3.70
2018-07-22T13:21:11.528Z,4.57
2018-07-22T13:23:39.665Z,3.70
2018-07-22T13:26:07.717Z,3.73
2018-07-22T13:28:36.517Z,4.07
2018-07-22T13:31:04.561Z,4.70
2018-07-22T13:33:32.593Z,4.47
2018-07-22T13:36:00.654Z,3.60
2018-07-22T13:38:28.718Z,3.40
2018-07-22T13:40:56.772Z,4.47
2018-07-22T13:43:24.853Z,3.97
2018-07-22T13:45:52.936Z,3.47
2018-07-22T13:48:21.197Z,3.47
2018-07-22T13:50:49.253Z,3.60
2018-07-22T13:53:17.296Z,3.87
2018-07-22T13:55:45.349Z,3.70
2018-07-22T13:58:13.401Z,4.03
2018-07-22T14:00:41.462Z,3.13
2018-07-22T14:03:09.498Z,2.90
2018-07-22T14:05:38.051Z,3.30
2018-07-22T14:08:06.189Z,3.60
2018-07-22T14:10:35.933Z,2.80
2018-07-22T14:13:05.561Z,3.70
2018-07-22T14:15:35.321Z,4.17
2018-07-22T14:18:03.381Z,3.83
2018-07-22T14:20:31.541Z,3.70
2018-07-22T14:22:59.590Z,4.07
2018-07-22T14:25:27.663Z,3.90
2018-07-22T14:27:55.737Z,4.20
2018-07-22T14:30:23.801Z,3.50
2018-07-22T14:32:51.847Z,3.67
2018-07-22T14:35:20.123Z,4.60
2018-07-22T14:37:48.185Z,3.93
2018-07-22T14:40:16.228Z,3.57
2018-07-22T14:42:45.985Z,3.37
2018-07-22T14:45:14.040Z,3.80
2018-07-22T14:47:41.981Z,3.23
2018-07-22T14:50:10.049Z,4.10
2018-07-22T14:52:38.133Z,4.20
2018-07-22T14:55:06.255Z,3.73
2018-07-22T14:57:34.355Z,4.53
2018-07-22T15:00:02.438Z,4.37
2018-07-22T15:02:30.305Z,4.00
2018-07-22T15:04:58.361Z,3.80
2018-07-22T15:07:26.419Z,3.80
2018-07-22T15:09:54.479Z,4.20
2018-07-22T15:12:22.539Z,3.50
2018-07-22T15:14:50.603Z,3.90
2018-07-22T15:17:18.673Z,3.23
2018-07-22T15:19:46.733Z,3.50
2018-07-22T15:22:14.677Z,2.93
2018-07-22T15:24:43.061Z,3.80
2018-07-22T15:27:11.113Z,3.93
2018-07-22T15:29:39.166Z,3.30
2018-07-22T15:32:08.063Z,3.60
2018-07-22T15:34:36.127Z,3.67
2018-07-22T15:37:04.236Z,3.57
2018-07-22T15:39:32.427Z,3.70
2018-07-22T15:42:00.509Z,2.97
2018-07-22T15:44:29.104Z,3.60
2018-07-22T15:46:57.158Z,3.10
2018-07-22T15:49:25.250Z,2.90
2018-07-22T15:51:53.313Z,3.00
2018-07-22T15:54:21.382Z,2.97
2018-07-22T15:56:49.430Z,3.57
2018-07-22T15:59:17.488Z,2.53
2018-07-22T16:01:45.561Z,2.73
2018-07-22T16:04:13.527Z,2.77
2018-07-22T16:06:41.607Z,2.30
2018-07-22T16:09:11.013Z,3.20
2018-07-22T16:11:39.070Z,2.80
2018-07-22T16:14:07.173Z,2.60
2018-07-22T16:16:35.236Z,3.00
2018-07-22T16:19:03.314Z,2.60
2018-07-22T16:21:31.369Z,2.87
2018-07-22T16:23:59.462Z,2.90
2018-07-22T16:26:27.518Z,2.40
2018-07-22T16:28:55.573Z,3.57
2018-07-22T16:31:23.658Z,2.60
2018-07-22T16:33:51.722Z,2.23
2018-07-22T16:36:19.786Z,2.20
2018-07-22T16:38:47.822Z,1.77
2018-07-22T16:41:16.544Z,2.20
2018-07-22T16:43:44.585Z,2.03
2018-07-22T16:46:12.630Z,2.43
2018-07-22T16:48:40.788Z,2.87
2018-07-22T16:51:08.934Z,2.03
2018-07-22T16:53:37.087Z,2.83
2018-07-22T16:56:05.053Z,2.23
2018-07-22T16:58:33.106Z,3.30
2018-07-22T17:01:00.948Z,2.40
2018-07-22T17:03:29.613Z,2.07
2018-07-22T17:05:57.698Z,2.33
2018-07-22T17:08:25.758Z,2.50
2018-07-22T17:10:53.806Z,2.27
2018-07-22T17:13:21.861Z,2.40
2018-07-22T17:15:49.917Z,3.57
2018-07-22T17:18:17.989Z,2.50
2018-07-22T17:20:46.070Z,1.80
2018-07-22T17:23:14.134Z,2.80
2018-07-22T17:25:42.202Z,2.97
2018-07-22T17:28:10.272Z,2.43
2018-07-22T17:30:38.343Z,2.90
2018-07-22T17:33:06.421Z,2.40
2018-07-22T17:41:17.414Z,2.30
2018-07-22T17:43:45.490Z,2.70
2018-07-22T17:46:13.510Z,2.73
2018-07-22T17:48:41.565Z,2.63
2018-07-22T17:51:09.737Z,2.00
2018-07-22T17:53:37.693Z,2.20
2018-07-22T17:56:05.863Z,2.10
2018-07-22T17:58:33.845Z,2.67
2018-07-22T18:01:01.862Z,3.17
2018-07-22T18:03:31.187Z,2.63
2018-07-22T18:05:59.584Z,3.20
2018-07-22T18:08:27.650Z,2.43
2018-07-22T18:10:56.113Z,2.57
2018-07-22T18:13:24.201Z,2.63
2018-07-22T18:15:52.281Z,3.13
2018-07-22T18:18:20.213Z,2.57
2018-07-22T18:20:48.906Z,3.43
2018-07-22T18:23:16.985Z,2.50
2018-07-22T18:25:45.750Z,2.80
2018-07-22T18:28:14.340Z,2.50
2018-07-22T18:30:42.626Z,3.30
2018-07-22T18:33:10.707Z,3.50
2018-07-22T18:35:38.815Z,4.40
2018-07-22T18:38:07.378Z,3.20
2018-07-22T18:40:35.308Z,3.07
2018-07-22T18:43:03.461Z,3.50
2018-07-22T18:45:32.579Z,3.00
2018-07-22T18:48:00.429Z,2.80
2018-07-22T18:50:28.565Z,2.97
2018-07-22T18:52:56.601Z,3.73
2018-07-22T18:55:24.662Z,3.53
2018-07-22T18:57:52.700Z,3.10
2018-07-22T19:00:20.762Z,3.57
2018-07-22T19:02:48.825Z,3.50
2018-07-22T19:05:16.898Z,4.50
2018-07-22T19:07:44.944Z,4.50
2018-07-22T19:10:13.019Z,3.93
2018-07-22T19:12:41.073Z,4.10
2018-07-22T19:15:09.158Z,3.53
2018-07-22T19:17:37.042Z,3.97
2018-07-22T19:20:05.344Z,4.90
2018-07-22T19:22:33.404Z,3.30
2018-07-22T19:25:01.486Z,4.60
2018-07-22T19:27:29.368Z,4.77
2018-07-22T19:29:57.208Z,3.90
2018-07-22T19:32:25.269Z,4.30
2018-07-22T19:34:53.356Z,4.50
2018-07-22T19:37:21.436Z,4.60
2018-07-22T19:39:49.705Z,4.30
2018-07-22T19:42:17.785Z,5.13
2018-07-22T19:44:45.890Z,4.23
2018-07-22T19:47:14.350Z,4.30
2018-07-22T19:49:42.569Z,4.10
2018-07-22T19:52:10.629Z,4.07
2018-07-22T19:54:38.709Z,4.40
2018-07-22T19:57:06.794Z,4.90
2018-07-22T19:59:34.846Z,3.63
2018-07-22T20:02:02.905Z,3.90
2018-07-22T20:04:30.965Z,4.90
2018-07-22T20:06:59.245Z,4.50
2018-07-22T20:09:27.079Z,4.00
2018-07-22T20:11:55.069Z,3.90
2018-07-22T20:14:23.221Z,4.67
2018-07-22T20:16:51.278Z,4.13
2018-07-22T20:19:19.341Z,4.30
2018-07-22T20:21:47.394Z,4.17
2018-07-22T20:24:15.571Z,3.77
2018-07-22T20:26:43.534Z,3.80
2018-07-22T20:29:11.582Z,3.80
2018-07-22T20:31:39.712Z,4.30
2018-07-22T20:34:07.755Z,3.50
2018-07-22T20:36:35.821Z,3.90
2018-07-22T20:39:06.485Z,3.73
2018-07-22T20:41:35.200Z,4.30
2018-07-22T20:44:03.233Z,4.03
2018-07-22T20:46:31.284Z,3.77
2018-07-22T20:48:59.334Z,3.60
2018-07-22T20:51:27.473Z,4.13
2018-07-22T20:53:55.481Z,4.10
2018-07-22T20:56:23.619Z,4.70
2018-07-22T20:58:51.639Z,4.10
2018-07-22T21:01:19.684Z,4.40
2018-07-22T21:03:47.757Z,4.77
2018-07-22T21:06:16.893Z,3.93
2018-07-22T21:08:45.174Z,3.70
2018-07-22T21:11:13.057Z,4.80
2018-07-22T21:13:41.126Z,4.47
2018-07-22T21:16:09.214Z,4.30
2018-07-22T21:18:37.334Z,4.23
2018-07-22T21:21:05.420Z,4.33
2018-07-22T21:23:33.497Z,5.17
2018-07-22T21:26:01.896Z,4.63
2018-07-22T21:28:29.944Z,4.90
2018-07-22T21:30:58.009Z,5.40
2018-07-22T21:33:26.056Z,4.60
2018-07-22T21:35:54.114Z,4.30
2018-07-22T21:38:22.186Z,4.70
2018-07-22T21:40:50.241Z,4.43
2018-07-22T21:43:18.084Z,4.80
2018-07-22T21:45:45.944Z,4.50
2018-07-22T21:48:13.804Z,6.00
2018-07-22T21:50:41.869Z,5.20
2018-07-22T21:53:09.950Z,4.63
2018-07-22T21:55:38.001Z,5.30
2018-07-22T21:58:06.069Z,5.13
2018-07-22T22:00:39.730Z,5.20
2018-07-22T22:03:07.810Z,5.50
2018-07-22T22:05:35.879Z,5.20
2018-07-22T22:08:03.918Z,5.63
2018-07-22T22:10:32.021Z,5.00
2018-07-22T22:13:00.081Z,5.17
2018-07-22T22:15:29.141Z,4.80
2018-07-22T22:17:58.393Z,5.43
2018-07-22T22:20:26.922Z,5.70
2018-07-22T22:22:55.097Z,5.33
2018-07-22T22:25:23.149Z,5.17
2018-07-22T22:27:51.213Z,5.53
2018-07-22T22:30:19.249Z,6.07
2018-07-22T22:32:47.605Z,6.80
2018-07-22T22:35:15.645Z,6.93
2018-07-22T22:37:44.229Z,5.60
2018-07-22T22:40:13.117Z,6.60
2018-07-22T22:42:42.534Z,6.87
2018-07-22T22:45:10.593Z,6.03
2018-07-22T22:47:38.649Z,8.53
2018-07-22T22:50:06.789Z,6.10
2018-07-22T22:52:34.842Z,5.90
2018-07-22T22:55:02.889Z,8.70
2018-07-22T22:57:30.938Z,7.20
2018-07-22T22:59:59.014Z,6.33
2018-07-22T23:02:32.445Z,7.03
2018-07-22T23:05:00.502Z,6.33
2018-07-22T23:07:28.561Z,7.10
2018-07-22T23:09:56.595Z,7.30
2018-07-22T23:12:24.649Z,7.20
2018-07-22T23:14:52.694Z,8.50
2018-07-22T23:17:20.754Z,8.50
2018-07-22T23:19:48.797Z,9.67
2018-07-22T23:22:17.075Z,9.67
2018-07-22T23:24:45.301Z,8.33
2018-07-22T23:27:13.381Z,9.10
2018-07-22T23:29:41.425Z,9.53
2018-07-22T23:32:10.373Z,9.60
2018-07-22T23:34:38.482Z,10.47
2018-07-22T23:37:06.577Z,10.50
2018-07-22T23:39:34.628Z,11.93
2018-07-22T23:42:02.692Z,12.10
2018-07-22T23:44:30.733Z,12.63
2018-07-22T23:46:58.789Z,11.37
2018-07-22T23:49:26.845Z,11.00
2018-07-22T23:51:54.893Z,10.07
2018-07-22T23:54:23.078Z,11.13
2018-07-22T23:56:51.278Z,11.07
2018-07-22T23:59:19.378Z,11.30
